createdAt,value
2019-05-12T00:00:30.127Z,53.92
2019-05-12T00:02:59.105Z,53.98
2019-05-12T00:05:23.765Z,53.82
2019-05-12T00:07:49.666Z,53.81
2019-05-12T00:10:17.579Z,54.20
2019-05-12T00:12:43.630Z,53.94
2019-05-12T00:15:09.772Z,53.89
2019-05-12T00:17:35.822Z,54.11
2019-05-12T00:20:01.975Z,54.10
2019-05-12T00:22:29.862Z,54.05
2019-05-12T00:24:58.290Z,53.97
2019-05-12T00:27:23.743Z,54.02
2019-05-12T00:29:50.078Z,54.22
2019-05-12T00:32:17.936Z,54.02
2019-05-12T00:34:43.664Z,54.18
2019-05-12T00:37:09.697Z,54.06
2019-05-12T00:39:38.113Z,54.05
2019-05-12T00:42:03.402Z,54.14
2019-05-12T00:44:29.285Z,54.11
2019-05-12T00:46:57.575Z,54.23
2019-05-12T00:49:23.200Z,54.18
2019-05-12T00:51:49.030Z,54.22
2019-05-12T00:54:14.987Z,54.12
2019-05-12T00:56:40.934Z,54.02
2019-05-12T00:59:08.293Z,54.27
2019-05-12T01:01:34.679Z,54.28
2019-05-12T01:04:02.532Z,54.22
2019-05-12T01:06:28.453Z,54.28
2019-05-12T01:08:54.623Z,54.26
2019-05-12T01:11:20.783Z,54.28
2019-05-12T01:13:48.568Z,54.32
2019-05-12T01:16:14.389Z,54.13
2019-05-12T01:18:40.278Z,54.17
2019-05-12T01:21:07.725Z,54.25
2019-05-12T01:23:33.808Z,54.10
2019-05-12T01:25:59.820Z,54.18
2019-05-12T01:28:27.686Z,54.14
2019-05-12T01:30:55.514Z,54.00
2019-05-12T01:33:21.400Z,54.29
2019-05-12T01:35:48.342Z,53.86
2019-05-12T01:38:14.403Z,53.76
2019-05-12T01:40:40.453Z,53.67
2019-05-12T01:43:08.485Z,53.60
2019-05-12T01:45:34.208Z,53.44
2019-05-12T01:48:00.442Z,53.38
2019-05-12T01:50:28.345Z,53.30
2019-05-12T01:52:54.333Z,53.42
2019-05-12T01:55:20.219Z,53.49
2019-05-12T01:57:48.470Z,53.29
2019-05-12T02:00:13.922Z,53.39
2019-05-12T02:02:39.808Z,53.52
2019-05-12T02:05:08.248Z,53.28
2019-05-12T02:07:38.511Z,53.29
2019-05-12T02:10:05.098Z,53.50
2019-05-12T02:12:31.045Z,53.50
2019-05-12T02:14:58.908Z,53.39
2019-05-12T02:17:24.790Z,53.43
2019-05-12T02:19:50.781Z,53.43
2019-05-12T02:22:18.869Z,53.45
2019-05-12T02:24:44.430Z,53.50
2019-05-12T02:27:10.357Z,53.60
2019-05-12T02:29:38.367Z,53.53
2019-05-12T02:32:04.249Z,53.57
2019-05-12T02:34:30.584Z,53.68
2019-05-12T02:36:56.631Z,53.68
2019-05-12T02:39:24.922Z,53.77
2019-05-12T02:41:50.221Z,53.82
2019-05-12T02:44:16.116Z,53.83
2019-05-12T02:46:44.466Z,53.68
2019-05-12T02:49:09.691Z,53.73
2019-05-12T02:51:35.695Z,53.67
2019-05-12T02:54:01.771Z,53.63
2019-05-12T02:56:27.824Z,53.67
2019-05-12T02:58:54.305Z,53.61
2019-05-12T03:01:20.342Z,53.54
2019-05-12T03:03:46.212Z,53.51
2019-05-12T03:06:15.010Z,53.41
2019-05-12T03:08:40.236Z,53.64
2019-05-12T03:11:06.452Z,53.26
2019-05-12T03:13:34.573Z,53.57
2019-05-12T03:16:04.689Z,53.49
2019-05-12T03:18:28.145Z,53.42
2019-05-12T03:20:54.717Z,53.50
2019-05-12T03:23:20.700Z,53.59
2019-05-12T03:25:46.713Z,53.61
2019-05-12T03:28:15.566Z,53.49
2019-05-12T03:30:41.118Z,53.56
2019-05-12T03:33:11.148Z,53.60
2019-05-12T03:35:41.562Z,53.61
2019-05-12T03:38:04.373Z,53.27
2019-05-12T03:40:37.552Z,53.20
2019-05-12T03:43:05.068Z,52.91
2019-05-12T03:45:35.456Z,52.87
2019-05-12T03:48:04.216Z,52.48
2019-05-12T03:50:35.212Z,52.59
2019-05-12T03:53:06.149Z,52.67
2019-05-12T03:55:35.893Z,52.81
2019-05-12T03:57:55.663Z,52.73
2019-05-12T04:00:24.466Z,53.03
2019-05-12T04:02:49.353Z,52.84
2019-05-12T04:05:15.824Z,52.78
2019-05-12T04:07:44.799Z,52.83
2019-05-12T04:10:09.515Z,52.62
2019-05-12T04:12:35.376Z,52.63
2019-05-12T04:15:04.799Z,52.50
2019-05-12T04:17:28.940Z,52.33
2019-05-12T04:19:55.100Z,52.56
2019-05-12T04:22:24.716Z,52.49
2019-05-12T04:24:48.788Z,52.46
2019-05-12T04:27:15.221Z,52.40
2019-05-12T04:29:44.037Z,52.14
2019-05-12T04:32:09.011Z,52.23
2019-05-12T04:34:34.875Z,52.43
2019-05-12T04:37:04.653Z,52.37
2019-05-12T04:39:34.111Z,52.45
2019-05-12T04:42:05.084Z,52.49
2019-05-12T04:44:34.765Z,52.22
2019-05-12T04:47:00.388Z,52.42
2019-05-12T04:49:26.649Z,52.56
2019-05-12T04:51:54.596Z,52.63
2019-05-12T04:54:20.180Z,52.61
2019-05-12T04:56:46.178Z,52.43
2019-05-12T04:59:15.337Z,52.54
2019-05-12T05:01:39.823Z,52.38
2019-05-12T05:04:06.017Z,52.50
2019-05-12T05:06:34.155Z,52.64
2019-05-12T05:08:59.906Z,52.58
2019-05-12T05:11:25.856Z,52.49
2019-05-12T05:13:54.597Z,52.27
2019-05-12T05:16:19.602Z,52.27
2019-05-12T05:18:45.547Z,52.37
2019-05-12T05:21:13.702Z,52.45
2019-05-12T05:23:39.083Z,52.41
2019-05-12T05:26:05.068Z,52.32
2019-05-12T05:28:31.086Z,52.56
2019-05-12T05:30:57.463Z,52.26
2019-05-12T05:33:23.915Z,52.69
2019-05-12T05:35:50.012Z,52.39
2019-05-12T05:38:20.524Z,52.47
2019-05-12T05:40:44.065Z,52.14
2019-05-12T05:43:17.936Z,52.02
2019-05-12T05:45:37.586Z,52.84
2019-05-12T05:48:05.513Z,53.10
2019-05-12T05:50:31.140Z,52.83
2019-05-12T05:52:57.035Z,52.28
2019-05-12T05:55:23.424Z,52.30
2019-05-12T05:57:49.412Z,52.46
2019-05-12T06:00:22.600Z,52.02
2019-05-12T06:02:44.115Z,52.56
2019-05-12T06:05:10.288Z,52.32
2019-05-12T06:07:39.077Z,52.53
2019-05-12T06:10:05.473Z,52.31
2019-05-12T06:12:33.525Z,51.91
2019-05-12T06:14:59.906Z,51.97
2019-05-12T06:17:26.474Z,52.64
2019-05-12T06:19:53.871Z,52.47
2019-05-12T06:22:20.001Z,52.79
2019-05-12T06:24:49.135Z,52.36
2019-05-12T06:27:19.447Z,52.89
2019-05-12T06:29:43.605Z,52.32
2019-05-12T06:32:10.853Z,52.77
2019-05-12T06:34:37.042Z,52.74
2019-05-12T06:37:11.621Z,52.36
2019-05-12T06:39:34.325Z,51.54
2019-05-12T06:42:12.269Z,52.75
2019-05-12T06:44:33.364Z,53.09
2019-05-12T06:47:06.004Z,53.06
2019-05-12T06:49:27.201Z,53.34
2019-05-12T06:52:01.320Z,53.08
2019-05-12T06:54:20.879Z,52.95
2019-05-12T06:56:49.972Z,53.16
2019-05-12T06:59:14.892Z,52.85
2019-05-12T07:01:41.127Z,53.27
2019-05-12T07:04:10.052Z,52.88
2019-05-12T07:06:35.075Z,52.73
2019-05-12T07:09:08.566Z,52.89
2019-05-12T07:11:41.562Z,53.33
2019-05-12T07:14:04.532Z,52.86
2019-05-12T07:16:30.001Z,52.85
2019-05-12T07:18:54.032Z,52.30
2019-05-12T07:21:22.129Z,52.77
2019-05-12T07:23:47.614Z,52.74
2019-05-12T07:26:19.226Z,53.42
2019-05-12T07:28:43.212Z,52.64
2019-05-12T07:31:09.051Z,53.00
2019-05-12T07:33:41.346Z,52.59
2019-05-12T07:36:06.293Z,52.85
2019-05-12T07:38:31.401Z,52.90
2019-05-12T07:41:00.725Z,53.07
2019-05-12T07:43:26.968Z,53.07
2019-05-12T07:46:02.054Z,53.25
2019-05-12T07:48:23.165Z,53.31
2019-05-12T07:50:50.214Z,53.28
2019-05-12T07:53:16.366Z,53.35
2019-05-12T07:55:47.450Z,53.30
2019-05-12T07:58:15.514Z,53.16
2019-05-12T08:00:37.707Z,53.30
2019-05-12T08:03:06.281Z,53.19
2019-05-12T08:05:33.615Z,53.29
2019-05-12T08:08:00.632Z,53.23
2019-05-12T08:10:26.593Z,53.23
2019-05-12T08:12:59.566Z,53.06
2019-05-12T08:15:20.594Z,52.87
2019-05-12T08:17:49.237Z,53.08
2019-05-12T08:20:14.131Z,52.82
2019-05-12T08:22:40.917Z,53.02
2019-05-12T08:25:06.950Z,53.12
2019-05-12T08:27:34.032Z,53.15
2019-05-12T08:30:05.864Z,53.11
2019-05-12T08:32:33.843Z,53.00
2019-05-12T08:34:59.829Z,52.43
2019-05-12T08:37:25.789Z,52.98
2019-05-12T08:39:53.328Z,52.99
2019-05-12T08:42:19.469Z,52.99
2019-05-12T08:44:45.849Z,53.07
2019-05-12T08:47:12.792Z,52.77
2019-05-12T08:49:49.970Z,52.83
2019-05-12T08:52:07.305Z,53.00
2019-05-12T08:54:33.638Z,52.89
2019-05-12T08:57:01.164Z,52.75
2019-05-12T08:59:27.571Z,52.75
2019-05-12T09:01:54.174Z,52.13
2019-05-12T09:04:20.202Z,52.26
2019-05-12T09:06:50.214Z,52.40
2019-05-12T09:09:14.034Z,52.52
2019-05-12T09:11:40.234Z,52.16
2019-05-12T09:14:06.561Z,52.36
2019-05-12T09:16:33.579Z,52.59
2019-05-12T09:18:59.603Z,52.55
2019-05-12T09:21:31.618Z,52.08
2019-05-12T09:23:55.912Z,52.38
2019-05-12T09:26:26.686Z,52.26
2019-05-12T09:28:50.379Z,52.58
2019-05-12T09:31:19.458Z,52.72
2019-05-12T09:33:44.641Z,52.62
2019-05-12T09:36:11.369Z,52.17
2019-05-12T09:38:40.920Z,52.04
2019-05-12T09:41:06.104Z,51.98
2019-05-12T09:43:34.223Z,51.92
2019-05-12T09:45:59.818Z,52.08
2019-05-12T09:48:25.776Z,52.47
2019-05-12T09:51:00.125Z,52.33
2019-05-12T09:53:19.517Z,52.41
2019-05-12T09:55:45.677Z,52.39
2019-05-12T09:58:15.811Z,52.62
2019-05-12T10:00:39.543Z,52.61
2019-05-12T10:03:08.361Z,51.86
2019-05-12T10:05:39.189Z,52.03
2019-05-12T10:08:04.593Z,52.02
2019-05-12T10:10:38.203Z,52.13
2019-05-12T10:13:01.396Z,51.94
2019-05-12T10:15:28.813Z,51.97
2019-05-12T10:17:54.759Z,51.89
2019-05-12T10:20:21.650Z,51.82
2019-05-12T10:22:48.631Z,51.87
2019-05-12T10:25:15.026Z,51.79
2019-05-12T10:27:40.962Z,51.83
2019-05-12T10:30:12.353Z,51.91
2019-05-12T10:32:35.563Z,51.82
2019-05-12T10:35:01.869Z,51.71
2019-05-12T10:37:29.404Z,51.85
2019-05-12T10:39:55.625Z,51.99
2019-05-12T10:42:21.562Z,51.87
2019-05-12T10:44:47.544Z,51.78
2019-05-12T10:47:13.631Z,51.72
2019-05-12T10:49:39.592Z,51.84
2019-05-12T10:52:05.547Z,51.96
2019-05-12T10:54:34.095Z,52.01
2019-05-12T10:56:59.537Z,52.13
2019-05-12T10:59:32.238Z,52.02
2019-05-12T11:01:54.105Z,51.97
2019-05-12T11:04:25.095Z,51.94
2019-05-12T11:06:48.588Z,51.85
2019-05-12T11:09:14.860Z,51.76
2019-05-12T11:11:43.641Z,51.69
2019-05-12T11:14:08.840Z,51.66
2019-05-12T11:16:35.495Z,51.59
2019-05-12T11:19:06.378Z,51.78
2019-05-12T11:21:29.365Z,51.41
2019-05-12T11:23:55.370Z,51.35
2019-05-12T11:26:23.493Z,51.51
2019-05-12T11:28:49.364Z,50.73
2019-05-12T11:31:15.223Z,51.36
2019-05-12T11:33:43.446Z,51.30
2019-05-12T11:36:09.463Z,51.60
2019-05-12T11:38:35.552Z,51.35
2019-05-12T11:41:01.483Z,51.44
2019-05-12T11:43:29.775Z,51.61
2019-05-12T11:45:55.077Z,51.58
2019-05-12T11:48:23.335Z,51.77
2019-05-12T11:50:51.248Z,51.84
2019-05-12T11:53:16.314Z,51.88
2019-05-12T11:55:43.809Z,51.84
2019-05-12T11:58:11.666Z,51.70
2019-05-12T12:00:39.846Z,51.90
2019-05-12T12:03:12.508Z,52.00
2019-05-12T12:05:33.864Z,51.99
2019-05-12T12:08:03.719Z,51.93
2019-05-12T12:10:29.274Z,51.46
2019-05-12T12:12:55.727Z,51.26
2019-05-12T12:15:26.459Z,51.25
2019-05-12T12:17:49.769Z,51.53
2019-05-12T12:20:22.004Z,51.63
2019-05-12T12:22:44.525Z,51.63
2019-05-12T12:25:12.891Z,51.53
2019-05-12T12:27:38.279Z,51.61
2019-05-12T12:30:16.032Z,51.63
2019-05-12T12:32:33.943Z,51.74
2019-05-12T12:35:06.138Z,51.77
2019-05-12T12:37:27.872Z,51.17
2019-05-12T12:39:53.784Z,51.12
2019-05-12T12:42:19.635Z,51.10
2019-05-12T12:44:45.528Z,50.92
2019-05-12T12:47:13.478Z,51.23
2019-05-12T12:49:40.034Z,51.35
2019-05-12T12:52:06.862Z,51.04
2019-05-12T12:54:33.250Z,51.19
2019-05-12T12:57:00.250Z,51.15
2019-05-12T12:59:27.090Z,51.12
2019-05-12T13:01:52.954Z,51.11
2019-05-12T13:04:18.972Z,50.97
2019-05-12T13:06:44.928Z,51.10
2019-05-12T13:09:18.307Z,50.22
2019-05-12T13:11:38.694Z,51.01
2019-05-12T13:14:04.655Z,51.02
2019-05-12T13:16:34.391Z,50.53
2019-05-12T13:19:11.978Z,50.70
2019-05-12T13:21:30.920Z,50.79
2019-05-12T13:23:56.909Z,51.04
2019-05-12T13:26:23.891Z,51.15
2019-05-12T13:28:53.716Z,51.07
2019-05-12T13:31:17.746Z,50.92
2019-05-12T13:33:44.331Z,50.92
2019-05-12T13:36:10.336Z,50.79
2019-05-12T13:38:40.510Z,49.98
2019-05-12T13:41:04.480Z,49.63
2019-05-12T13:43:34.066Z,50.63
2019-05-12T13:46:00.809Z,50.48
2019-05-12T13:48:26.659Z,50.78
2019-05-12T13:50:54.375Z,50.85
2019-05-12T13:53:20.507Z,50.87
2019-05-12T13:55:49.470Z,50.89
2019-05-12T13:58:14.478Z,50.74
2019-05-12T14:00:41.490Z,50.77
2019-05-12T14:03:09.747Z,50.56
2019-05-12T14:05:35.700Z,50.53
2019-05-12T14:08:03.736Z,50.75
2019-05-12T14:10:29.274Z,50.95
2019-05-12T14:12:55.473Z,50.78
2019-05-12T14:15:21.477Z,50.47
2019-05-12T14:17:47.623Z,50.56
2019-05-12T14:20:15.688Z,50.78
2019-05-12T14:22:41.861Z,50.70
2019-05-12T14:25:08.590Z,50.74
2019-05-12T14:27:34.658Z,50.66
2019-05-12T14:30:09.992Z,50.83
2019-05-12T14:32:33.592Z,50.84
2019-05-12T14:35:00.870Z,50.91
2019-05-12T14:37:27.108Z,50.74
2019-05-12T14:39:53.609Z,50.85
2019-05-12T14:42:19.764Z,51.01
2019-05-12T14:44:49.662Z,51.10
2019-05-12T14:47:13.427Z,51.26
2019-05-12T14:49:39.459Z,51.12
2019-05-12T14:52:05.521Z,50.90
2019-05-12T14:54:34.176Z,50.91
2019-05-12T14:56:59.529Z,50.74
2019-05-12T14:59:30.008Z,50.74
2019-05-12T15:01:59.094Z,50.88
2019-05-12T15:04:27.902Z,50.71
2019-05-12T15:06:48.973Z,50.85
2019-05-12T15:09:19.566Z,50.83
2019-05-12T15:11:43.753Z,51.01
2019-05-12T15:14:09.917Z,51.10
2019-05-12T15:16:40.376Z,51.11
2019-05-12T15:19:03.593Z,51.11
2019-05-12T15:21:31.252Z,51.10
2019-05-12T15:23:57.348Z,51.09
2019-05-12T15:26:24.207Z,51.12
2019-05-12T15:28:50.476Z,50.97
2019-05-12T15:31:16.536Z,51.00
2019-05-12T15:33:44.028Z,51.06
2019-05-12T15:36:09.961Z,51.07
2019-05-12T15:38:35.944Z,51.03
2019-05-12T15:41:04.202Z,50.94
2019-05-12T15:43:35.087Z,50.95
2019-05-12T15:45:59.549Z,50.92
2019-05-12T15:48:26.180Z,50.97
2019-05-12T15:50:54.017Z,50.90
2019-05-12T15:53:21.973Z,50.87
2019-05-12T15:55:49.968Z,50.95
2019-05-12T15:58:15.434Z,51.07
2019-05-12T16:00:43.343Z,51.10
2019-05-12T16:03:09.089Z,50.97
2019-05-12T16:05:35.044Z,50.79
2019-05-12T16:08:03.435Z,50.86
2019-05-12T16:10:28.794Z,51.00
2019-05-12T16:12:55.044Z,50.84
2019-05-12T16:15:21.104Z,50.84
2019-05-12T16:17:47.023Z,50.79
2019-05-12T16:20:14.109Z,50.40
2019-05-12T16:22:44.603Z,50.62
2019-05-12T16:25:08.324Z,50.69
2019-05-12T16:27:37.221Z,50.62
2019-05-12T16:30:04.754Z,50.40
2019-05-12T16:32:41.702Z,50.48
2019-05-12T16:35:07.145Z,50.47
2019-05-12T16:37:35.247Z,50.38
2019-05-12T16:40:04.282Z,50.37
2019-05-12T16:42:29.470Z,50.41
2019-05-12T16:45:05.072Z,50.46
2019-05-12T16:47:27.307Z,50.34
2019-05-12T16:49:53.330Z,49.95
2019-05-12T16:52:18.712Z,49.66
2019-05-12T16:54:44.657Z,50.04
2019-05-12T16:57:15.590Z,50.15
2019-05-12T16:59:38.329Z,49.79
2019-05-12T17:02:09.516Z,49.94
2019-05-12T17:04:33.352Z,49.74
2019-05-12T17:06:59.543Z,49.98
2019-05-12T17:09:25.527Z,49.45
2019-05-12T17:11:53.324Z,49.48
2019-05-12T17:14:19.630Z,49.25
2019-05-12T17:16:46.696Z,49.60
2019-05-12T17:19:12.899Z,49.68
2019-05-12T17:21:40.582Z,49.63
2019-05-12T17:24:06.479Z,49.47
2019-05-12T17:26:33.452Z,49.43
2019-05-12T17:29:01.556Z,49.55
2019-05-12T17:31:27.253Z,49.29
2019-05-12T17:33:54.386Z,49.48
2019-05-12T17:36:20.392Z,49.30
2019-05-12T17:38:51.092Z,49.13
2019-05-12T17:41:17.841Z,49.35
2019-05-12T17:43:54.827Z,49.45
2019-05-12T17:46:13.543Z,48.96
2019-05-12T17:48:42.908Z,49.23
2019-05-12T17:51:05.940Z,49.43
2019-05-12T17:53:36.084Z,49.37
2019-05-12T17:56:04.769Z,49.39
2019-05-12T17:58:36.638Z,49.17
2019-05-12T18:01:01.061Z,49.29
2019-05-12T18:03:27.090Z,49.35
2019-05-12T18:05:53.475Z,49.27
2019-05-12T18:08:26.435Z,49.47
2019-05-12T18:10:48.088Z,49.38
2019-05-12T18:13:22.411Z,49.29
2019-05-12T18:15:44.031Z,49.21
2019-05-12T18:18:09.650Z,49.51
2019-05-12T18:20:39.992Z,49.34
2019-05-12T18:23:04.384Z,49.40
2019-05-12T18:25:32.396Z,49.12
2019-05-12T18:27:58.476Z,48.52
2019-05-12T18:30:24.727Z,49.16
2019-05-12T18:32:55.017Z,49.40
2019-05-12T18:35:20.421Z,49.17
2019-05-12T18:37:46.472Z,49.00
2019-05-12T18:40:14.719Z,49.04
2019-05-12T18:42:40.664Z,49.16
2019-05-12T18:45:12.180Z,49.49
2019-05-12T18:47:36.556Z,49.66
2019-05-12T18:50:06.073Z,49.59
2019-05-12T18:52:37.678Z,50.00
2019-05-12T18:55:02.434Z,50.04
2019-05-12T18:57:28.350Z,50.12
2019-05-12T19:00:03.438Z,49.68
2019-05-12T19:02:23.567Z,49.12
2019-05-12T19:04:50.099Z,49.59
2019-05-12T19:07:16.067Z,49.75
2019-05-12T19:09:46.453Z,50.23
2019-05-12T19:12:16.342Z,50.00
2019-05-12T19:14:40.501Z,50.12
2019-05-12T19:17:05.614Z,50.00
2019-05-12T19:19:31.561Z,49.91
2019-05-12T19:22:04.994Z,49.40
2019-05-12T19:24:25.475Z,49.73
2019-05-12T19:26:53.975Z,49.99
2019-05-12T19:29:19.538Z,49.70
2019-05-12T19:31:52.723Z,49.75
2019-05-12T19:34:19.864Z,49.81
2019-05-12T19:36:44.792Z,49.88
2019-05-12T19:39:09.458Z,49.04
2019-05-12T19:41:36.319Z,49.52
2019-05-12T19:44:04.105Z,49.26
2019-05-12T19:46:34.162Z,49.20
2019-05-12T19:49:04.436Z,48.48
2019-05-12T19:51:30.582Z,48.83
2019-05-12T19:53:56.588Z,48.32
2019-05-12T19:56:23.845Z,48.34
2019-05-12T19:58:50.328Z,48.81
2019-05-12T20:01:16.211Z,48.89
2019-05-12T20:03:43.926Z,48.97
2019-05-12T20:06:09.812Z,49.37
2019-05-12T20:08:35.706Z,48.94
2019-05-12T20:11:03.654Z,49.22
2019-05-12T20:13:34.632Z,49.09
2019-05-12T20:15:57.179Z,49.28
2019-05-12T20:18:23.757Z,49.33
2019-05-12T20:20:49.888Z,49.23
2019-05-12T20:23:15.861Z,49.41
2019-05-12T20:25:44.151Z,49.40
2019-05-12T20:28:11.403Z,49.27
2019-05-12T20:30:37.301Z,49.07
2019-05-12T20:33:04.472Z,49.20
2019-05-12T20:35:33.367Z,49.58
2019-05-12T20:37:59.014Z,49.58
2019-05-12T20:40:25.485Z,49.40
2019-05-12T20:43:07.531Z,49.74
2019-05-12T20:45:22.759Z,50.02
2019-05-12T20:47:47.647Z,49.99
2019-05-12T20:50:14.680Z,49.60
2019-05-12T20:52:48.758Z,49.67
2019-05-12T20:55:08.485Z,49.77
2019-05-12T20:57:34.693Z,50.25
2019-05-12T21:00:04.753Z,49.88
2019-05-12T21:02:33.817Z,49.22
2019-05-12T21:05:09.444Z,48.78
2019-05-12T21:07:33.866Z,49.83
2019-05-12T21:09:59.749Z,49.32
2019-05-12T21:12:25.761Z,48.40
2019-05-12T21:14:53.354Z,48.79
2019-05-12T21:17:19.457Z,47.99
2019-05-12T21:19:55.640Z,48.30
2019-05-12T21:22:14.230Z,48.19
2019-05-12T21:24:40.617Z,48.55
2019-05-12T21:27:09.349Z,48.72
2019-05-12T21:29:34.293Z,48.58
2019-05-12T21:32:11.556Z,48.69
2019-05-12T21:34:34.477Z,48.42
2019-05-12T21:37:04.619Z,48.91
2019-05-12T21:39:33.546Z,48.34
2019-05-12T21:41:59.759Z,48.59
2019-05-12T21:44:26.127Z,48.80
2019-05-12T21:46:59.436Z,49.01
2019-05-12T21:49:19.893Z,48.82
2019-05-12T21:51:50.433Z,48.60
2019-05-12T21:54:13.634Z,48.75
2019-05-12T21:56:44.706Z,49.42
2019-05-12T21:59:07.516Z,48.89
2019-05-12T22:01:35.075Z,48.68
2019-05-12T22:04:02.537Z,48.94
2019-05-12T22:06:29.073Z,48.44
2019-05-12T22:09:01.295Z,48.91
2019-05-12T22:11:24.626Z,48.76
2019-05-12T22:13:56.205Z,48.77
2019-05-12T22:16:18.773Z,48.78
2019-05-12T22:18:47.678Z,48.89
2019-05-12T22:21:13.632Z,48.78
2019-05-12T22:23:44.562Z,48.48
2019-05-12T22:26:07.837Z,48.93
2019-05-12T22:28:34.299Z,48.73
2019-05-12T22:31:02.837Z,48.56
2019-05-12T22:33:28.715Z,48.58
2019-05-12T22:36:04.873Z,48.55
2019-05-12T22:38:24.706Z,48.79
2019-05-12T22:40:56.163Z,48.75
2019-05-12T22:43:18.165Z,48.61
2019-05-12T22:45:46.600Z,48.89
2019-05-12T22:48:11.881Z,48.78
2019-05-12T22:50:38.043Z,48.76
2019-05-12T22:53:04.695Z,48.80
2019-05-12T22:55:36.018Z,48.78
2019-05-12T22:58:01.473Z,48.83
2019-05-12T23:00:27.629Z,48.61
2019-05-12T23:02:53.771Z,48.79
2019-05-12T23:05:20.656Z,48.79
2019-05-12T23:07:47.062Z,48.94
2019-05-12T23:10:14.314Z,48.91
2019-05-12T23:12:40.334Z,48.76
2019-05-12T23:15:07.168Z,48.70
2019-05-12T23:17:33.836Z,48.86
2019-05-12T23:20:01.203Z,48.94
2019-05-12T23:22:29.489Z,48.63
2019-05-12T23:24:54.815Z,48.73
2019-05-12T23:27:28.160Z,48.99
2019-05-12T23:29:48.598Z,49.04
2019-05-12T23:32:15.134Z,48.85
2019-05-12T23:34:44.939Z,49.00
2019-05-12T23:37:09.026Z,48.86
2019-05-12T23:39:38.239Z,48.80
2019-05-12T23:42:04.401Z,48.86
2019-05-12T23:44:33.313Z,48.82
2019-05-12T23:46:58.823Z,48.76
2019-05-12T23:49:24.997Z,48.83
2019-05-12T23:51:51.196Z,48.81
2019-05-12T23:54:17.094Z,48.77
2019-05-12T23:56:44.444Z,48.74
2019-05-12T23:59:10.516Z,48.72
